Turukhansk, Russia
Current Conditions -  °F | °C
As of 5:00 AM on Thursday 29 Jan 2015 (Local Time) from USNN Reporting Station
Blowing Snow Blowing Snow  
Wind Chill:   Ceiling: 2500
Heat Index: 16°   Visibility: 6mi
Dew Point:   Wind: 16mph
Humidity: 62%   Direction: 220°SW
Pressure: 29.8"   Gusts: 25mph
Location:  65.82°N, 87.98°E
Report Text: USNN 282200Z 22007G11MPS 9999 DRSN OVC025 M09/M15 Q1009 NOSIGRMK QFE752 21410134
Loading
Personal Weather Stations






























Interactive Weather Map New forecast layout! Learn more

10-Day Weather Forecast

Advertisements
Track Severe Weather on mobile